Time;durP1;ratioP1;P1;durP2;ratioP2;P2;SDS_P1;SDS_P2;PMS_P1;PMS_P2;Temp;Humidity;BMP_temperature;BMP_pressure;BME280_temperature;BME280_humidity;BME280_pressure;Samples;Min_cycle;Max_cycle;Signal;HPM_P1;HPM_P2
2024/04/08 00:00:42;;;;;;;12.07;4.47;;;17.90;99.90;;;;;;5117235;27;20090;-74
2024/04/08 00:03:07;;;;;;;10.98;4.43;;;17.80;99.90;;;;;;5135317;27;20027;-74
2024/04/08 00:05:33;;;;;;;11.18;4.63;;;17.80;99.90;;;;;;5130044;27;20019;-74
2024/04/08 00:08:01;;;;;;;7.07;4.03;;;17.90;99.90;;;;;;5127482;27;20038;-75
2024/04/08 00:10:27;;;;;;;12.52;4.63;;;17.90;99.90;;;;;;5135594;27;20011;-74
2024/04/08 00:12:53;;;;;;;8.60;5.28;;;17.90;99.90;;;;;;5135587;27;20027;-74
2024/04/08 00:15:18;;;;;;;10.63;5.00;;;18.00;99.90;;;;;;5135222;27;20037;-73
2024/04/08 00:17:44;;;;;;;7.93;4.93;;;17.90;99.90;;;;;;5135381;27;20384;-73
2024/04/08 00:20:11;;;;;;;7.78;4.55;;;17.90;99.90;;;;;;5135368;27;20059;-73
2024/04/08 00:22:38;;;;;;;9.63;4.85;;;17.70;99.90;;;;;;5135049;27;20027;-74
2024/04/08 00:25:13;;;;;;;12.25;5.38;;;17.80;99.90;;;;;;5121736;27;20064;-74
2024/04/08 00:27:38;;;;;;;7.05;4.40;;;17.60;99.90;;;;;;5134956;27;20492;-74
2024/04/08 00:30:05;;;;;;;9.80;4.72;;;17.60;99.90;;;;;;5132178;27;20103;-74
2024/04/08 00:32:31;;;;;;;7.18;4.78;;;17.60;99.90;;;;;;5127838;27;20011;-73
2024/04/08 00:34:57;;;;;;;7.88;5.65;;;17.60;99.90;;;;;;5107936;27;20042;-73
2024/04/08 00:37:23;;;;;;;10.38;5.13;;;17.40;99.90;;;;;;5128452;27;20037;-72
2024/04/08 00:39:48;;;;;;;9.70;5.40;;;17.20;99.90;;;;;;5118650;27;20517;-72
2024/04/08 00:42:14;;;;;;;11.30;5.65;;;17.20;99.90;;;;;;5117139;27;20027;-74
2024/04/08 00:44:40;;;;;;;9.77;5.15;;;17.30;99.90;;;;;;5134664;27;20102;-74
2024/04/08 00:47:07;;;;;;;11.05;5.57;;;17.40;99.90;;;;;;5134823;27;20020;-74
2024/04/08 00:49:33;;;;;;;11.23;5.63;;;17.50;99.90;;;;;;5135378;27;20116;-73
2024/04/08 00:51:59;;;;;;;10.20;5.43;;;17.40;99.90;;;;;;5134490;27;20407;-74
2024/04/08 00:54:28;;;;;;;9.18;5.70;;;17.40;99.90;;;;;;5135142;27;20042;-75
2024/04/08 00:56:56;;;;;;;10.60;5.25;;;17.30;99.90;;;;;;5133977;27;20026;-74
2024/04/08 00:59:24;;;;;;;8.88;5.47;;;17.20;99.90;;;;;;5116583;27;20026;-74
2024/04/08 01:01:50;;;;;;;10.10;6.00;;;17.20;99.90;;;;;;5134385;27;20051;-73
2024/04/08 01:04:15;;;;;;;9.90;5.85;;;17.30;99.90;;;;;;5134614;27;20439;-75
2024/04/08 01:06:42;;;;;;;10.55;5.55;;;17.30;99.90;;;;;;5121267;27;20024;-75
2024/04/08 01:09:08;;;;;;;9.38;5.38;;;17.40;99.90;;;;;;5134694;27;20034;-76
2024/04/08 01:11:35;;;;;;;10.38;5.45;;;17.40;99.90;;;;;;5134456;27;20030;-76
2024/04/08 01:14:00;;;;;;;9.13;4.95;;;17.50;99.90;;;;;;5134740;27;20499;-76
2024/04/08 01:16:27;;;;;;;8.95;5.85;;;17.50;99.90;;;;;;5134151;27;20022;-76
2024/04/08 01:18:52;;;;;;;8.32;5.43;;;17.50;99.90;;;;;;5125194;27;20035;-76
2024/04/08 01:21:18;;;;;;;11.70;5.57;;;17.40;99.90;;;;;;5120072;27;20030;-76
2024/04/08 01:23:44;;;;;;;8.32;5.90;;;17.40;99.90;;;;;;5112139;28;20043;-76
2024/04/08 01:26:10;;;;;;;9.48;5.55;;;17.50;99.90;;;;;;5113697;28;20472;-76
2024/04/08 01:28:38;;;;;;;8.60;5.70;;;17.50;99.90;;;;;;5114134;28;20102;-76
2024/04/08 01:31:04;;;;;;;12.30;5.97;;;17.50;99.90;;;;;;5113684;28;20030;-75
2024/04/08 01:33:30;;;;;;;9.20;5.68;;;17.40;99.90;;;;;;5112226;28;20098;-76
2024/04/08 01:36:05;;;;;;;11.23;6.18;;;17.30;99.90;;;;;;5095097;28;20068;-76
2024/04/08 01:38:31;;;;;;;12.30;6.53;;;17.10;99.90;;;;;;5094768;28;20088;-76
2024/04/08 01:40:58;;;;;;;10.90;6.43;;;17.20;99.90;;;;;;5095372;28;20027;-76
2024/04/08 01:43:24;;;;;;;13.48;5.72;;;17.20;99.90;;;;;;5113167;28;20027;-76
2024/04/08 01:45:52;;;;;;;12.98;6.30;;;17.30;99.90;;;;;;5127212;27;20019;-76
2024/04/08 01:48:18;;;;;;;8.27;5.30;;;17.40;99.90;;;;;;5134068;27;20022;-76
2024/04/08 01:50:44;;;;;;;10.75;5.50;;;17.40;99.90;;;;;;5134043;27;20031;-76
2024/04/08 01:53:10;;;;;;;13.43;5.90;;;17.30;99.90;;;;;;5115173;27;20368;-76
2024/04/08 01:55:36;;;;;;;9.55;6.10;;;17.30;99.90;;;;;;5113549;28;20081;-76
2024/04/08 01:58:01;;;;;;;9.43;6.30;;;17.40;99.90;;;;;;5112819;28;20089;-76
2024/04/08 02:00:28;;;;;;;6.70;5.22;;;17.30;99.90;;;;;;5113506;28;20073;-76
2024/04/08 02:02:53;;;;;;;10.55;4.93;;;17.30;99.90;;;;;;5113071;28;20028;-76
2024/04/08 02:05:19;;;;;;;7.43;5.47;;;17.40;99.90;;;;;;5113173;28;20080;-76
2024/04/08 02:07:45;;;;;;;7.78;5.32;;;17.40;99.90;;;;;;5113481;28;20024;-76
2024/04/08 02:10:11;;;;;;;8.32;5.57;;;17.40;99.90;;;;;;5113312;28;20027;-76
2024/04/08 02:12:37;;;;;;;8.68;5.70;;;17.40;99.90;;;;;;5113045;28;20024;-76
2024/04/08 02:15:03;;;;;;;9.95;5.90;;;17.30;99.90;;;;;;5112960;28;20380;-76
2024/04/08 02:17:29;;;;;;;10.18;5.57;;;17.20;99.90;;;;;;5093952;28;20032;-76
2024/04/08 02:19:56;;;;;;;9.13;6.43;;;17.20;99.90;;;;;;5111397;28;20023;-76
2024/04/08 02:22:21;;;;;;;10.57;6.25;;;17.20;99.90;;;;;;5113072;28;20024;-75
2024/04/08 02:24:47;;;;;;;13.23;6.65;;;17.20;99.90;;;;;;5110857;28;20076;-76
2024/04/08 02:27:13;;;;;;;16.83;6.85;;;17.00;99.90;;;;;;5100804;28;20029;-75
2024/04/08 02:29:39;;;;;;;8.73;6.35;;;16.70;99.90;;;;;;5092310;28;20024;-75
2024/04/08 02:32:04;;;;;;;14.07;6.30;;;16.80;99.90;;;;;;5092653;28;20110;-75
2024/04/08 02:34:31;;;;;;;11.80;6.35;;;16.90;99.90;;;;;;5092359;28;20419;-75
2024/04/08 02:36:57;;;;;;;9.82;6.43;;;17.00;99.90;;;;;;5091045;28;20166;-75
2024/04/08 02:39:22;;;;;;;14.55;6.85;;;17.00;99.90;;;;;;5091776;28;20119;-75
2024/04/08 02:41:48;;;;;;;9.82;6.53;;;17.00;99.90;;;;;;5092093;28;20384;-75
2024/04/08 02:44:14;;;;;;;11.38;6.53;;;16.90;99.90;;;;;;5092844;28;20077;-75
2024/04/08 02:46:40;;;;;;;12.63;7.68;;;17.00;99.90;;;;;;5133100;27;20034;-75
2024/04/08 02:49:05;;;;;;;9.02;6.65;;;17.00;99.90;;;;;;5133245;27;20452;-75
2024/04/08 02:51:31;;;;;;;10.43;6.43;;;16.90;99.90;;;;;;5115172;27;20027;-75
2024/04/08 02:53:57;;;;;;;8.10;6.13;;;17.00;99.90;;;;;;5114252;27;20035;-75
2024/04/08 02:56:22;;;;;;;12.05;6.28;;;17.00;99.90;;;;;;5104753;28;20396;-75
2024/04/08 02:58:48;;;;;;;13.77;6.40;;;17.00;99.90;;;;;;5099138;28;20480;-75
2024/04/08 03:01:14;;;;;;;10.30;6.22;;;16.90;99.90;;;;;;5079811;28;20109;-75
2024/04/08 03:03:40;;;;;;;8.68;6.07;;;16.80;99.90;;;;;;5092070;28;20026;-75
2024/04/08 03:06:10;;;;;;;12.05;6.28;;;16.90;99.90;;;;;;5091027;28;20030;-75
2024/04/08 03:08:36;;;;;;;9.63;6.13;;;16.80;99.90;;;;;;5092039;28;20415;-75
2024/04/08 03:11:02;;;;;;;10.70;6.57;;;16.80;99.90;;;;;;5092180;28;20035;-75
2024/04/08 03:13:28;;;;;;;9.80;6.68;;;16.80;99.90;;;;;;5092295;28;20035;-75
2024/04/08 03:15:54;;;;;;;11.90;7.05;;;16.90;99.90;;;;;;5092229;28;20028;-74
2024/04/08 03:18:20;;;;;;;16.35;6.35;;;16.90;99.90;;;;;;5074298;28;20023;-75
2024/04/08 03:21:00;;;;;;;7.07;5.53;;;16.90;99.90;;;;;;5091982;28;20481;-75
2024/04/08 03:23:26;;;;;;;7.63;5.68;;;16.80;99.90;;;;;;5092308;28;20034;-75
2024/04/08 03:25:59;;;;;;;9.93;6.70;;;16.90;99.90;;;;;;5091897;28;20059;-75
2024/04/08 03:28:25;;;;;;;9.90;6.75;;;17.00;99.90;;;;;;5092218;28;20101;-75
2024/04/08 03:30:51;;;;;;;10.77;7.35;;;17.00;99.90;;;;;;5092135;28;20484;-74
2024/04/08 03:33:21;;;;;;;9.13;7.32;;;17.00;99.90;;;;;;5091551;28;20031;-75
2024/04/08 03:35:47;;;;;;;12.68;6.93;;;17.00;99.90;;;;;;5091888;28;20032;-75
2024/04/08 03:38:14;;;;;;;11.25;7.45;;;17.00;99.90;;;;;;5092024;28;20012;-75
2024/04/08 03:40:40;;;;;;;10.32;6.78;;;16.90;99.90;;;;;;5091272;28;20119;-75
2024/04/08 03:43:06;;;;;;;9.15;6.72;;;16.90;99.90;;;;;;5092024;28;20481;-75
2024/04/08 03:45:32;;;;;;;12.90;7.10;;;16.70;99.90;;;;;;5114558;28;20031;-75
2024/04/08 03:47:58;;;;;;;10.30;7.35;;;16.60;99.90;;;;;;5132716;28;20463;-75
2024/04/08 03:50:31;;;;;;;7.97;7.03;;;16.30;99.90;;;;;;5132779;28;20035;-75
2024/04/08 03:52:57;;;;;;;8.98;6.53;;;16.10;99.90;;;;;;5114481;28;20076;-74
2024/04/08 03:55:27;;;;;;;11.45;8.13;;;16.10;99.90;;;;;;5132327;28;20123;-75
2024/04/08 03:57:53;;;;;;;13.50;8.27;;;15.80;99.90;;;;;;5135082;27;20072;-75
2024/04/08 04:00:19;;;;;;;13.52;8.38;;;15.70;99.90;;;;;;5136267;27;20027;-74
2024/04/08 04:02:46;;;;;;;11.60;7.32;;;15.60;99.90;;;;;;5117956;27;20020;-74
2024/04/08 04:05:11;;;;;;;7.60;5.68;;;15.70;99.90;;;;;;5136168;27;20022;-74
2024/04/08 04:07:37;;;;;;;12.32;7.10;;;15.90;99.90;;;;;;5117634;27;20023;-74
2024/04/08 04:10:08;;;;;;;10.73;6.63;;;16.10;99.90;;;;;;5135742;27;20475;-74
2024/04/08 04:12:38;;;;;;;11.25;6.30;;;16.20;99.90;;;;;;5136254;27;20463;-74
2024/04/08 04:15:12;;;;;;;11.07;6.00;;;16.40;99.90;;;;;;5131508;27;20100;-74
2024/04/08 04:17:42;;;;;;;7.93;6.13;;;16.40;99.90;;;;;;5105166;28;20032;-74
2024/04/08 04:20:14;;;;;;;7.88;5.95;;;16.40;99.90;;;;;;5115885;28;20035;-74
2024/04/08 04:22:40;;;;;;;10.80;5.82;;;16.50;99.90;;;;;;5115728;28;20023;-74
2024/04/08 04:25:08;;;;;;;7.90;6.28;;;16.40;99.90;;;;;;5096795;28;20473;-74
2024/04/08 04:27:33;;;;;;;11.85;6.45;;;16.30;99.90;;;;;;5115314;28;20030;-74
2024/04/08 04:29:59;;;;;;;8.10;5.47;;;16.40;99.90;;;;;;5115708;28;20028;-74
2024/04/08 04:32:25;;;;;;;8.57;5.97;;;16.40;99.90;;;;;;5096872;28;20478;-74
2024/04/08 04:34:54;;;;;;;9.38;6.05;;;16.50;99.90;;;;;;5115258;28;20028;-74
2024/04/08 04:37:20;;;;;;;10.02;6.00;;;16.40;99.90;;;;;;5096495;28;20024;-74
2024/04/08 04:39:46;;;;;;;16.50;7.03;;;16.40;99.90;;;;;;5115437;28;20467;-74
2024/04/08 04:42:12;;;;;;;9.00;5.95;;;16.40;99.90;;;;;;5096736;28;20221;-74
2024/04/08 04:44:38;;;;;;;7.78;6.10;;;16.40;99.90;;;;;;5099062;27;20034;-74
2024/04/08 04:47:04;;;;;;;11.85;6.22;;;16.40;99.90;;;;;;5135509;27;20023;-74
2024/04/08 04:49:30;;;;;;;7.30;5.60;;;16.40;99.90;;;;;;5135846;27;20019;-74
2024/04/08 04:51:56;;;;;;;9.48;5.82;;;16.20;99.90;;;;;;5116769;27;20424;-74
2024/04/08 04:54:21;;;;;;;10.43;6.30;;;16.30;99.90;;;;;;5135401;27;20043;-74
2024/04/08 04:56:47;;;;;;;10.77;6.60;;;16.20;99.90;;;;;;5134902;27;20042;-74
2024/04/08 04:59:13;;;;;;;10.15;6.85;;;16.20;99.90;;;;;;5116822;27;20068;-74
2024/04/08 05:01:39;;;;;;;8.48;6.45;;;16.10;99.90;;;;;;5103838;28;20495;-74
2024/04/08 05:04:05;;;;;;;8.73;6.65;;;16.10;99.90;;;;;;5114704;28;20441;-74
2024/04/08 05:06:31;;;;;;;10.77;6.90;;;16.10;99.90;;;;;;5113797;28;20043;-73
2024/04/08 05:08:58;;;;;;;11.82;7.40;;;16.20;99.90;;;;;;5114336;28;20019;-74
2024/04/08 05:11:24;;;;;;;8.98;6.60;;;16.20;99.90;;;;;;5114284;28;20058;-74
2024/04/08 05:13:50;;;;;;;11.70;6.97;;;16.30;99.90;;;;;;5114569;28;20066;-74
2024/04/08 05:16:15;;;;;;;9.05;6.28;;;16.30;99.90;;;;;;5114610;28;20412;-74
2024/04/08 05:18:41;;;;;;;13.20;6.97;;;16.30;99.90;;;;;;5114266;28;20031;-74
2024/04/08 05:21:09;;;;;;;8.63;5.93;;;16.30;99.90;;;;;;5114611;28;20046;-74
2024/04/08 05:23:35;;;;;;;8.00;6.78;;;16.30;99.90;;;;;;5114467;28;20482;-75
2024/04/08 05:26:02;;;;;;;10.98;6.03;;;16.30;99.90;;;;;;5114273;28;20101;-74
2024/04/08 05:28:29;;;;;;;9.93;6.07;;;16.30;99.90;;;;;;5092420;28;20051;-74
2024/04/08 05:30:55;;;;;;;9.80;7.65;;;16.40;99.90;;;;;;5104748;28;20122;-74
2024/04/08 05:33:21;;;;;;;9.63;5.68;;;16.20;99.90;;;;;;5093763;28;20016;-74
2024/04/08 05:35:47;;;;;;;12.38;7.00;;;16.20;99.90;;;;;;5092127;28;20126;-74
2024/04/08 05:38:14;;;;;;;9.82;6.20;;;16.10;99.90;;;;;;5075255;28;20460;-75
2024/04/08 05:40:40;;;;;;;12.30;7.82;;;15.90;99.90;;;;;;5093830;28;20111;-75
2024/04/08 05:43:07;;;;;;;9.50;6.82;;;15.90;99.90;;;;;;5081382;28;20357;-75
2024/04/08 05:45:33;;;;;;;9.07;6.40;;;15.80;99.90;;;;;;5110547;27;20028;-74
2024/04/08 05:47:59;;;;;;;10.00;7.53;;;15.80;99.90;;;;;;5093601;28;20517;-75
2024/04/08 05:50:25;;;;;;;11.85;7.45;;;15.80;99.90;;;;;;5093295;28;20043;-75
2024/04/08 05:52:52;;;;;;;12.45;7.15;;;15.90;99.90;;;;;;5093409;28;20530;-75
2024/04/08 05:55:18;;;;;;;14.90;8.57;;;15.90;99.90;;;;;;5093397;28;20465;-75
2024/04/08 05:57:44;;;;;;;14.50;9.68;;;16.10;99.90;;;;;;5099910;28;20027;-74
2024/04/08 06:00:10;;;;;;;11.63;9.00;;;16.20;99.90;;;;;;5098305;28;20043;-74
2024/04/08 06:02:37;;;;;;;17.25;9.63;;;16.30;99.90;;;;;;5103799;27;20067;-75
2024/04/08 06:05:03;;;;;;;12.60;8.98;;;16.20;99.90;;;;;;5097130;27;20023;-74
2024/04/08 06:09:05;;;;;;;11.60;8.50;;;16.30;99.90;;;;;;5498801;25;20349;-74
2024/04/08 06:11:31;;;;;;;14.77;8.23;;;16.30;99.90;;;;;;5495537;26;20434;-74
2024/04/08 06:13:57;;;;;;;12.38;8.30;;;16.40;99.90;;;;;;5498697;25;20009;-74
2024/04/08 06:16:22;;;;;;;9.52;6.80;;;16.40;99.90;;;;;;5499596;26;19994;-74
2024/04/08 06:18:48;;;;;;;9.68;7.68;;;16.40;99.90;;;;;;5499443;26;20026;-75
2024/04/08 06:21:14;;;;;;;13.55;8.45;;;16.40;99.90;;;;;;5499597;26;20016;-75
2024/04/08 06:23:40;;;;;;;11.75;7.90;;;16.50;99.90;;;;;;5498906;26;19990;-75
2024/04/08 06:26:05;;;;;;;12.98;7.90;;;16.40;99.90;;;;;;5497881;26;20070;-75
2024/04/08 06:28:31;;;;;;;12.90;8.23;;;16.50;99.90;;;;;;5497838;25;19997;-75
2024/04/08 06:30:57;;;;;;;12.10;7.45;;;16.50;99.90;;;;;;5497455;26;20500;-75
2024/04/08 06:33:23;;;;;;;12.45;7.55;;;16.60;99.90;;;;;;5495667;25;20474;-75
2024/04/08 06:35:49;;;;;;;12.40;7.85;;;16.50;99.90;;;;;;5483920;25;20039;-75
2024/04/08 06:38:15;;;;;;;11.35;8.32;;;16.60;99.90;;;;;;5451025;26;20458;-75
2024/04/08 06:40:41;;;;;;;12.50;8.30;;;16.60;99.90;;;;;;5444290;26;19994;-72
2024/04/08 06:43:07;;;;;;;12.20;7.32;;;16.70;99.90;;;;;;5496439;25;20009;-75
2024/04/08 06:45:32;;;;;;;9.65;6.72;;;16.70;99.90;;;;;;5441156;26;20444;-75
2024/04/08 06:47:58;;;;;;;9.85;7.18;;;16.70;99.90;;;;;;5446023;26;20011;-75
2024/04/08 06:50:24;;;;;;;10.15;7.10;;;16.80;99.90;;;;;;5447767;26;20023;-75
2024/04/08 06:52:50;;;;;;;10.93;6.93;;;16.80;99.90;;;;;;5444536;26;20002;-75
2024/04/08 06:55:16;;;;;;;9.10;7.85;;;16.80;99.90;;;;;;5446670;26;20003;-75
2024/04/08 06:57:43;;;;;;;11.65;7.03;;;16.80;99.90;;;;;;5447288;26;20006;-75
2024/04/08 07:00:10;;;;;;;9.05;6.97;;;16.80;99.90;;;;;;5446606;26;20397;-74
2024/04/08 07:02:36;;;;;;;7.88;6.25;;;16.90;99.90;;;;;;5450454;26;19995;-74
2024/04/08 07:05:02;;;;;;;10.13;7.05;;;16.90;99.90;;;;;;5445389;26;19999;-75
2024/04/08 07:07:28;;;;;;;13.63;6.80;;;16.90;99.90;;;;;;5442879;26;20443;-74
2024/04/08 07:09:54;;;;;;;11.80;7.60;;;16.90;99.90;;;;;;5444603;26;20065;-74
2024/04/08 07:12:20;;;;;;;11.65;7.47;;;16.90;99.90;;;;;;5449521;26;19999;-74
2024/04/08 07:14:45;;;;;;;10.15;7.68;;;17.00;99.90;;;;;;5444179;26;20010;-73
2024/04/08 07:17:11;;;;;;;11.50;7.88;;;17.10;99.90;;;;;;5438880;26;20443;-72
2024/04/08 07:19:37;;;;;;;11.40;8.02;;;17.10;99.90;;;;;;5426561;26;20021;-72
2024/04/08 07:22:03;;;;;;;9.23;6.72;;;17.00;99.90;;;;;;5424087;26;19995;-73
2024/04/08 07:24:29;;;;;;;11.90;6.57;;;17.10;99.90;;;;;;5428006;26;19991;-72
2024/04/08 07:26:54;;;;;;;11.23;7.75;;;17.10;99.90;;;;;;5426912;26;20468;-72
2024/04/08 07:29:20;;;;;;;11.40;7.70;;;17.10;99.90;;;;;;5428552;26;19999;-73
2024/04/08 07:31:46;;;;;;;11.98;8.27;;;17.10;99.90;;;;;;5491777;26;20363;-72
2024/04/08 07:34:12;;;;;;;10.50;7.38;;;17.20;99.90;;;;;;5425081;26;20452;-72
2024/04/08 07:36:38;;;;;;;13.35;7.50;;;17.30;99.90;;;;;;5424874;26;20006;-77
2024/04/08 07:39:04;;;;;;;9.65;7.18;;;17.30;99.90;;;;;;5427645;26;20460;-77
2024/04/08 07:41:30;;;;;;;12.40;7.25;;;17.20;99.90;;;;;;5425045;26;19998;-74
2024/04/08 07:43:56;;;;;;;11.43;8.20;;;17.20;99.90;;;;;;5425646;26;20562;-73
2024/04/08 07:46:22;;;;;;;12.30;7.50;;;17.20;99.90;;;;;;5414133;26;20440;-74
2024/04/08 07:48:48;;;;;;;10.38;7.15;;;17.30;99.90;;;;;;5419803;26;20399;-75
2024/04/08 07:51:14;;;;;;;10.35;7.30;;;17.30;99.90;;;;;;5423111;26;20005;-74
2024/04/08 07:53:39;;;;;;;10.13;7.07;;;17.30;99.90;;;;;;5419488;26;19998;-74
2024/04/08 07:56:05;;;;;;;11.82;7.82;;;17.30;99.90;;;;;;5401458;26;20422;-73
2024/04/08 07:58:32;;;;;;;10.48;7.68;;;17.50;99.90;;;;;;5419169;26;20010;-72
2024/04/08 08:00:58;;;;;;;14.25;8.50;;;17.50;99.90;;;;;;5424855;26;19998;-76
2024/04/08 08:03:26;;;;;;;13.20;7.43;;;17.50;99.90;;;;;;5422238;26;20447;-74
2024/04/08 08:05:55;;;;;;;11.52;7.32;;;17.70;99.90;;;;;;5420986;26;19995;-74
2024/04/08 08:08:22;;;;;;;10.88;6.57;;;17.70;99.90;;;;;;5424152;26;20010;-74
2024/04/08 08:10:48;;;;;;;8.52;6.30;;;17.70;99.90;;;;;;5427182;26;20003;-79
2024/04/08 08:13:13;;;;;;;10.88;6.45;;;17.80;99.90;;;;;;5429271;26;20027;-75
2024/04/08 08:15:39;;;;;;;10.68;6.82;;;17.90;99.90;;;;;;5424614;26;20916;-77
2024/04/08 08:18:05;;;;;;;10.82;6.65;;;17.90;99.90;;;;;;5418258;26;20007;-79
2024/04/08 08:20:33;;;;;;;14.00;7.57;;;18.00;99.90;;;;;;5427589;26;20036;-76
2024/04/08 08:23:00;;;;;;;8.15;6.38;;;18.00;99.90;;;;;;5428406;26;20012;-72
2024/04/08 08:25:29;;;;;;;13.20;6.53;;;18.10;99.90;;;;;;5435477;26;20015;-75
2024/04/08 08:27:55;;;;;;;11.63;6.13;;;18.20;99.90;;;;;;5425097;26;20019;-72
2024/04/08 08:30:21;;;;;;;9.18;5.68;;;18.20;99.90;;;;;;5426675;26;20525;-74
2024/04/08 08:32:50;;;;;;;11.00;5.22;;;18.30;99.90;;;;;;5426120;26;20086;-72
2024/04/08 08:35:16;;;;;;;8.73;4.57;;;18.30;99.90;;;;;;5419461;26;20006;-84
2024/04/08 08:37:41;;;;;;;6.95;5.20;;;18.30;99.90;;;;;;5428159;26;20015;-75
2024/04/08 08:40:08;;;;;;;9.57;4.97;;;18.20;99.90;;;;;;5421990;26;19996;-77
2024/04/08 08:42:34;;;;;;;6.57;4.45;;;18.30;99.90;;;;;;5422465;26;20006;-77
2024/04/08 08:45:05;;;;;;;9.25;4.88;;;18.40;99.90;;;;;;5417460;26;20398;-82
2024/04/08 08:47:32;;;;;;;5.78;4.78;;;18.40;99.90;;;;;;5424290;26;20102;-77
2024/04/08 08:49:58;;;;;;;8.18;5.53;;;18.50;99.90;;;;;;5411729;26;20011;-76
2024/04/08 08:52:24;;;;;;;6.53;4.53;;;18.60;99.90;;;;;;5421306;26;20521;-76
2024/04/08 08:54:53;;;;;;;8.30;4.47;;;18.70;99.90;;;;;;5422299;26;21433;-79
2024/04/08 08:57:19;;;;;;;6.22;4.60;;;18.80;99.90;;;;;;5415260;26;19996;-77
2024/04/08 08:59:50;;;;;;;6.45;4.97;;;18.70;99.90;;;;;;5416791;26;20102;-76
2024/04/08 09:02:17;;;;;;;11.85;6.10;;;18.90;99.90;;;;;;5422786;26;20025;-79
2024/04/08 09:04:43;;;;;;;6.88;5.47;;;18.90;99.90;;;;;;5421088;26;20017;-79
2024/04/08 09:07:09;;;;;;;10.18;5.20;;;18.90;99.90;;;;;;5415322;26;20448;-79
2024/04/08 09:09:35;;;;;;;10.05;4.85;;;19.00;99.90;;;;;;5420549;26;20075;-77
2024/04/08 09:12:01;;;;;;;8.60;5.45;;;18.90;99.90;;;;;;5423419;26;20451;-76
2024/04/08 09:14:30;;;;;;;7.43;4.82;;;19.10;99.90;;;;;;5422944;26;19999;-80
2024/04/08 09:17:06;;;;;;;10.40;5.35;;;19.10;99.90;;;;;;5415908;26;20014;-80
2024/04/08 09:19:32;;;;;;;5.45;4.60;;;19.10;99.90;;;;;;5415953;26;20040;-77
2024/04/08 09:21:58;;;;;;;10.13;4.25;;;19.30;99.90;;;;;;5420539;26;20459;-79
2024/04/08 09:24:24;;;;;;;5.22;3.55;;;19.50;99.90;;;;;;5427594;26;20010;-77
2024/04/08 09:26:52;;;;;;;6.40;3.78;;;19.60;99.90;;;;;;5421513;26;20073;-77
2024/04/08 09:29:18;;;;;;;10.27;4.38;;;19.70;99.90;;;;;;5423138;26;20021;-81
2024/04/08 09:31:45;;;;;;;5.72;4.03;;;19.60;99.90;;;;;;5414487;26;20000;-77
2024/04/08 09:34:11;;;;;;;8.77;3.70;;;19.90;99.90;;;;;;5426890;26;20017;-77
2024/04/08 09:36:39;;;;;;;9.15;4.18;;;20.00;99.90;;;;;;5425912;26;20003;-82
2024/04/08 09:39:08;;;;;;;8.35;4.30;;;20.00;99.90;;;;;;5414274;26;20410;-82
2024/04/08 09:41:36;;;;;;;4.38;3.63;;;20.10;99.90;;;;;;5426988;26;20014;-82
2024/04/08 09:44:13;;;;;;;8.52;3.83;;;20.30;99.90;;;;;;5425658;26;20000;-76
2024/04/08 09:46:40;;;;;;;5.07;3.83;;;20.40;99.90;;;;;;5429309;26;20009;-77
2024/04/08 09:49:09;;;;;;;7.05;4.18;;;20.40;99.90;;;;;;5422672;26;20518;-77
2024/04/08 09:51:42;;;;;;;6.45;4.05;;;20.30;99.90;;;;;;5431355;26;20007;-78
2024/04/08 09:54:10;;;;;;;;;;;20.40;99.90;;;;;;5423507;26;20038;-81
2024/04/08 09:56:37;;;;;;;9.88;4.60;;;20.40;99.90;;;;;;5432715;26;19935;-80
2024/04/08 09:59:12;;;;;;;5.47;4.38;;;20.40;99.90;;;;;;5427921;26;20002;-84
2024/04/08 10:01:38;;;;;;;6.95;3.90;;;20.70;99.90;;;;;;5423454;26;19996;-80
2024/04/08 10:04:20;;;;;;;9.52;3.65;;;20.80;99.90;;;;;;5427476;26;20021;-77
2024/04/08 10:06:47;;;;;;;9.50;4.05;;;21.00;99.90;;;;;;5418679;26;20022;-77
2024/04/08 10:09:14;;;;;;;6.78;4.18;;;21.30;99.90;;;;;;5423616;26;19998;-77
2024/04/08 10:11:47;;;;;;;5.55;4.65;;;21.30;99.90;;;;;;5423630;26;20014;-77
2024/04/08 10:14:16;;;;;;;;;;;21.50;99.90;;;;;;5420100;26;20027;-80
2024/04/08 10:16:41;;;;;;;4.40;3.15;;;21.50;99.90;;;;;;5421808;26;19932;-77
2024/04/08 10:19:11;;;;;;;6.78;4.28;;;21.40;99.90;;;;;;5429140;26;20253;-77
2024/04/08 10:21:38;;;;;;;7.45;3.83;;;21.00;99.90;;;;;;5416579;26;20002;-82
2024/04/08 10:24:04;;;;;;;7.28;4.63;;;20.90;99.90;;;;;;5435697;26;20018;-81
2024/04/08 10:26:34;;;;;;;8.68;4.63;;;21.00;99.90;;;;;;5418700;26;20015;-77
2024/04/08 10:29:00;;;;;;;7.40;5.15;;;21.00;99.90;;;;;;5421964;26;20011;-78
2024/04/08 10:31:29;;;;;;;8.45;4.57;;;20.90;99.90;;;;;;5413461;26;20452;-77
2024/04/08 10:33:55;;;;;;;8.68;4.85;;;21.00;99.90;;;;;;5419540;26;20016;-78
2024/04/08 10:36:20;;;;;;;7.68;4.63;;;21.00;99.90;;;;;;5416625;26;20538;-78
2024/04/08 10:38:47;;;;;;;5.60;3.80;;;21.00;99.90;;;;;;5414709;26;19999;-78
2024/04/08 10:41:12;;;;;;;6.22;3.80;;;21.00;99.90;;;;;;5417959;26;20003;-77
2024/04/08 10:43:38;;;;;;;6.60;4.45;;;21.00;99.90;;;;;;5422640;26;20043;-78
2024/04/08 10:46:07;;;;;;;6.50;3.83;;;21.10;99.90;;;;;;5421155;26;19999;-77
2024/04/08 10:48:35;;;;;;;7.10;4.70;;;21.10;99.90;;;;;;5420180;26;20007;-77
2024/04/08 10:51:01;;;;;;;5.07;4.28;;;20.90;99.90;;;;;;5418764;26;19995;-77
2024/04/08 10:53:27;;;;;;;6.88;3.85;;;20.80;99.90;;;;;;5424337;26;20427;-77
2024/04/08 10:55:54;;;;;;;6.78;4.05;;;20.70;99.90;;;;;;5424287;26;20524;-77
2024/04/08 10:58:20;;;;;;;9.90;4.00;;;20.60;99.90;;;;;;5430156;26;20093;-77
2024/04/08 11:00:46;;;;;;;7.80;4.20;;;20.50;99.90;;;;;;5429697;26;20010;-78
2024/04/08 11:03:13;;;;;;;8.20;4.45;;;20.30;99.90;;;;;;5426573;26;20034;-77
2024/04/08 11:05:39;;;;;;;6.63;4.30;;;20.30;99.90;;;;;;5424467;26;19999;-78
2024/04/08 11:08:07;;;;;;;5.95;4.18;;;20.30;99.90;;;;;;5431473;26;20078;-77
2024/04/08 11:10:33;;;;;;;7.93;4.60;;;20.20;99.90;;;;;;5425032;26;20035;-78
2024/04/08 11:13:00;;;;;;;5.10;3.45;;;20.10;99.90;;;;;;5435151;26;19999;-82
2024/04/08 11:15:28;;;;;;;9.77;4.18;;;20.10;99.90;;;;;;5423785;26;20000;-79
2024/04/08 11:17:57;;;;;;;7.10;3.70;;;20.10;99.90;;;;;;5427216;26;19999;-77
2024/04/08 11:20:26;;;;;;;10.90;4.60;;;20.10;99.90;;;;;;5424250;26;21445;-76
2024/04/08 11:22:52;;;;;;;7.43;4.55;;;20.10;99.90;;;;;;5422618;26;20013;-80
2024/04/08 11:25:18;;;;;;;5.72;3.72;;;20.00;99.90;;;;;;5423699;26;20064;-78
2024/04/08 11:27:45;;;;;;;6.47;3.20;;;20.10;99.90;;;;;;5430488;26;20062;-78
2024/04/08 11:30:14;;;;;;;6.32;4.40;;;20.20;99.90;;;;;;5427482;26;20076;-79
2024/04/08 11:32:40;;;;;;;8.27;4.20;;;20.30;99.90;;;;;;5431080;26;19999;-78
2024/04/08 11:35:06;;;;;;;5.00;4.40;;;20.30;99.90;;;;;;5424716;26;20011;-80
2024/04/08 11:37:32;;;;;;;6.22;5.03;;;20.30;99.90;;;;;;5422795;26;20448;-80
2024/04/08 11:39:57;;;;;;;7.43;4.13;;;20.20;99.90;;;;;;5427230;26;20004;-78
2024/04/08 11:42:23;;;;;;;10.20;4.68;;;20.20;99.90;;;;;;5433494;26;20327;-80
2024/04/08 11:45:04;;;;;;;8.30;3.95;;;20.30;99.90;;;;;;5426505;26;20039;-80
2024/04/08 11:47:29;;;;;;;7.32;4.75;;;20.30;99.90;;;;;;5427393;26;20003;-78
2024/04/08 11:49:58;;;;;;;10.77;4.53;;;20.20;99.90;;;;;;5429578;26;20012;-80
2024/04/08 11:52:24;;;;;;;9.10;4.47;;;20.20;99.90;;;;;;5428561;26;20481;-80
2024/04/08 11:54:49;;;;;;;7.68;4.53;;;20.00;99.90;;;;;;5425218;26;19994;-79
2024/04/08 11:57:15;;;;;;;7.43;4.05;;;20.00;99.90;;;;;;5429071;26;20004;-77
2024/04/08 11:59:42;;;;;;;9.50;3.83;;;20.00;99.90;;;;;;5478153;26;20011;-78
2024/04/08 12:02:08;;;;;;;8.27;4.32;;;20.10;99.90;;;;;;5427925;26;20031;-78
2024/04/08 12:04:34;;;;;;;7.40;4.15;;;20.00;99.90;;;;;;5426032;26;19991;-77
2024/04/08 12:07:06;;;;;;;9.35;3.95;;;20.10;99.90;;;;;;5418522;26;20004;-80
2024/04/08 12:09:31;;;;;;;6.72;4.50;;;20.10;99.90;;;;;;5428261;26;20010;-77
2024/04/08 12:11:57;;;;;;;5.63;4.03;;;20.10;99.90;;;;;;5426190;26;20343;-78
2024/04/08 12:14:24;;;;;;;11.32;4.90;;;20.00;99.90;;;;;;5421194;26;20002;-77
2024/04/08 12:16:50;;;;;;;8.95;4.57;;;20.10;99.90;;;;;;5423938;26;20521;-80
2024/04/08 12:19:16;;;;;;;7.78;4.25;;;20.10;99.90;;;;;;5427616;26;20007;-79
2024/04/08 12:21:41;;;;;;;7.28;4.68;;;20.10;99.90;;;;;;5479115;26;20440;-80
2024/04/08 12:24:07;;;;;;;8.70;5.07;;;20.00;99.90;;;;;;5422685;26;19999;-79
2024/04/08 12:26:33;;;;;;;9.32;4.53;;;19.90;99.90;;;;;;5428345;26;19998;-81
2024/04/08 12:28:59;;;;;;;6.90;4.60;;;20.00;99.90;;;;;;5426230;26;20770;-80
2024/04/08 12:31:25;;;;;;;7.25;4.38;;;19.90;99.90;;;;;;5418498;26;20396;-76
2024/04/08 12:33:50;;;;;;;10.50;4.75;;;19.90;99.90;;;;;;5431255;26;20015;-79
2024/04/08 12:36:16;;;;;;;7.30;4.28;;;20.00;99.90;;;;;;5423163;26;19999;-80
2024/04/08 12:38:42;;;;;;;5.78;3.90;;;19.90;99.90;;;;;;5422900;26;19999;-79
2024/04/08 12:41:08;;;;;;;5.70;3.95;;;19.90;99.90;;;;;;5423531;26;20080;-81